地図

経路データ

SID SEASON NUMBER BASIN SUBBASIN NAME ISO_TIME NATURE LAT LON WMO_WIND WMO_PRES WMO_AGENCY TRACK_TYPE DIST2LAND LANDFALL IFLAG USA_AGENCY USA_ATCF_ID USA_LAT USA_LON USA_RECORD USA_STATUS USA_WIND USA_PRES USA_SSHS USA_R34_NE USA_R34_SE USA_R34_SW USA_R34_NW USA_R50_NE USA_R50_SE USA_R50_SW USA_R50_NW USA_R64_NE USA_R64_SE USA_R64_SW USA_R64_NW USA_POCI USA_ROCI USA_RMW USA_EYE TOKYO_LAT TOKYO_LON TOKYO_GRADE TOKYO_WIND TOKYO_PRES TOKYO_R50_DIR TOKYO_R50_LONG TOKYO_R50_SHORT TOKYO_R30_DIR TOKYO_R30_LONG TOKYO_R30_SHORT TOKYO_LAND CMA_LAT CMA_LON CMA_CAT CMA_WIND CMA_PRES HKO_LAT HKO_LON HKO_CAT HKO_WIND HKO_PRES NEWDELHI_LAT NEWDELHI_LON NEWDELHI_GRADE NEWDELHI_WIND NEWDELHI_PRES NEWDELHI_CI NEWDELHI_DP NEWDELHI_POCI REUNION_LAT REUNION_LON REUNION_TYPE REUNION_WIND REUNION_PRES REUNION_TNUM REUNION_CI REUNION_RMW REUNION_R34_NE REUNION_R34_SE REUNION_R34_SW REUNION_R34_NW REUNION_R50_NE REUNION_R50_SE REUNION_R50_SW REUNION_R50_NW REUNION_R64_NE REUNION_R64_SE REUNION_R64_SW REUNION_R64_NW BOM_LAT BOM_LON BOM_TYPE BOM_WIND BOM_PRES BOM_TNUM BOM_CI BOM_RMW BOM_R34_NE BOM_R34_SE BOM_R34_SW BOM_R34_NW BOM_R50_NE BOM_R50_SE BOM_R50_SW BOM_R50_NW BOM_R64_NE BOM_R64_SE BOM_R64_SW BOM_R64_NW BOM_ROCI BOM_POCI BOM_EYE BOM_POS_METHOD BOM_PRES_METHOD NADI_LAT NADI_LON NADI_CAT NADI_WIND NADI_PRES WELLINGTON_LAT WELLINGTON_LON WELLINGTON_WIND WELLINGTON_PRES DS824_LAT DS824_LON DS824_STAGE DS824_WIND DS824_PRES TD9636_LAT TD9636_LON TD9636_STAGE TD9636_WIND TD9636_PRES TD9635_LAT TD9635_LON TD9635_WIND TD9635_PRES TD9635_ROCI NEUMANN_LAT NEUMANN_LON NEUMANN_CLASS NEUMANN_WIND NEUMANN_PRES MLC_LAT MLC_LON MLC_CLASS MLC_WIND MLC_PRES USA_GUST BOM_GUST BOM_GUST_PER REUNION_GUST REUNION_GUST_PER USA_SEAHGT USA_SEARAD_NE USA_SEARAD_SE USA_SEARAD_SW USA_SEARAD_NW STORM_SPEED STORM_DIR
1995154N17276 1995 27 NA CS ALLISON 1995-06-03 00:00:00 TS 17.4000 -84.3000 30 1005 hurdat_atl main 173 173 O_____________ hurdat_atl AL011995 17.4000 -84.3000 TD 30 1005 -1 10 331
1995154N17276 1995 27 NA CS ALLISON 1995-06-03 03:00:00 TS 17.8474 -84.5626 main 212 212 P_____________ AL011995 17.8474 -84.5626 TD 30 1004 -1 11 328
1995154N17276 1995 27 NA CS ALLISON 1995-06-03 06:00:00 TS 18.3000 -84.9000 30 1004 hurdat_atl main 268 238 O_____________ hurdat_atl AL011995 18.3000 -84.9000 TD 30 1004 -1 12 321
1995154N17276 1995 27 NA CS ALLISON 1995-06-03 09:00:00 TS 18.7702 -85.3371 main 234 179 P_____________ AL011995 18.7702 -85.3371 TD 32 1003 -1 13 323
1995154N17276 1995 27 NA CS ALLISON 1995-06-03 12:00:00 TS 19.3000 -85.7000 35 1003 hurdat_atl main 179 152 O_____________ hurdat_atl AL011995 19.3000 -85.7000 TS 35 1003 0 12 339
1995154N17276 1995 27 NA CS ALLISON 1995-06-03 15:00:00 TS 19.9199 -85.7956 main 152 108 P_____________ AL011995 19.9199 -85.7956 TS 37 1002 0 13 356
1995154N17276 1995 27 NA CS ALLISON 1995-06-03 18:00:00 TS 20.6000 -85.8000 40 1001 hurdat_atl main 108 82 O_____________ hurdat_atl AL011995 20.6000 -85.8000 TS 40 1001 0 14 357
1995154N17276 1995 27 NA CS ALLISON 1995-06-03 21:00:00 TS 21.3000 -85.8851 main 85 85 P_____________ AL011995 21.3000 -85.8851 TS 45 999 0 14 352
1995154N17276 1995 27 NA GM ALLISON 1995-06-04 00:00:00 TS 22.0000 -86.0000 50 997 hurdat_atl main 103 103 O_____________ hurdat_atl AL011995 22.0000 -86.0000 TS 50 997 0 14 349
1995154N17276 1995 27 NA GM ALLISON 1995-06-04 03:00:00 TS 22.6500 -86.1721 main 152 152 P_____________ AL011995 22.6500 -86.1721 TS 55 996 0 13 348
1995154N17276 1995 27 NA GM ALLISON 1995-06-04 06:00:00 TS 23.3000 -86.3000 60 995 hurdat_atl main 205 205 O_____________ hurdat_atl AL011995 23.3000 -86.3000 TS 60 995 0 13 356
1995154N17276 1995 27 NA GM ALLISON 1995-06-04 09:00:00 TS 23.9850 -86.2730 main 269 269 P_____________ AL011995 23.9850 -86.2730 TS 62 991 0 14 4
1995154N17276 1995 27 NA GM ALLISON 1995-06-04 12:00:00 TS 24.7000 -86.2000 65 987 hurdat_atl main 316 316 O_____________ hurdat_atl AL011995 24.7000 -86.2000 HU 65 987 1 15 3
1995154N17276 1995 27 NA GM ALLISON 1995-06-04 15:00:00 TS 25.4500 -86.1997 main 384 375 P_____________ AL011995 25.4500 -86.1997 HU 65 987 1 15 0
1995154N17276 1995 27 NA GM ALLISON 1995-06-04 18:00:00 TS 26.2000 -86.2000 65 988 hurdat_atl main 377 322 O_____________ hurdat_atl AL011995 26.2000 -86.2000 HU 65 988 1 15 1
1995154N17276 1995 27 NA GM ALLISON 1995-06-04 21:00:00 TS 26.9449 -86.1872 main 322 244 P_____________ AL011995 26.9449 -86.1872 HU 65 988 1 14 4
1995154N17276 1995 27 NA GM ALLISON 1995-06-05 00:00:00 TS 27.6000 -86.1000 65 988 hurdat_atl main 244 195 O_____________ hurdat_atl AL011995 27.6000 -86.1000 HU 65 988 1 12 12
1995154N17276 1995 27 NA GM ALLISON 1995-06-05 03:00:00 TS 28.0723 -85.9095 main 185 135 P_____________ AL011995 28.0723 -85.9095 HU 62 989 0 10 26
1995154N17276 1995 27 NA GM ALLISON 1995-06-05 06:00:00 TS 28.5000 -85.6000 60 990 hurdat_atl main 135 78 O_____________ hurdat_atl AL011995 28.5000 -85.6000 TS 60 990 0 12 33
1995154N17276 1995 27 NA GM ALLISON 1995-06-05 09:00:00 TS 29.0605 -85.1762 main 66 22 P_____________ AL011995 29.0605 -85.1762 TS 60 990 0 14 36
1995154N17276 1995 27 NA GM ALLISON 1995-06-05 12:00:00 TS 29.6000 -84.7000 60 990 hurdat_atl main 22 0 O_____________ hurdat_atl AL011995 29.6000 -84.7000 TS 60 990 0 13 39
1995154N17276 1995 27 NA GM ALLISON 1995-06-05 14:00:00 TS 29.9000 -84.4000 60 991 hurdat_atl main 0 0 O_____________ hurdat_atl AL011995 29.9000 -84.4000 L TS 60 991 0 13 41
1995154N17276 1995 27 NA GM ALLISON 1995-06-05 15:00:00 TS 30.1000 -84.2000 55 991 hurdat_atl main 0 0 O_____________ hurdat_atl AL011995 30.1000 -84.2000 L TS 55 991 0 14 33
1995154N17276 1995 27 NA NA ALLISON 1995-06-05 18:00:00 TS 30.7000 -83.8000 45 993 hurdat_atl main 0 0 O_____________ hurdat_atl AL011995 30.7000 -83.8000 TS 45 993 0 14 32
1995154N17276 1995 27 NA NA ALLISON 1995-06-05 21:00:00 TS 31.2736 -83.3405 main 0 0 P_____________ AL011995 31.2736 -83.3405 TS 37 993 0 14 38
1995154N17276 1995 27 NA NA ALLISON 1995-06-06 00:00:00 TS 31.8000 -82.8000 30 993 hurdat_atl main 0 0 O_____________ hurdat_atl AL011995 31.8000 -82.8000 TD 30 993 -1 14 45
1995154N17276 1995 27 NA NA ALLISON 1995-06-06 03:00:00 TS 32.2647 -82.1867 main 0 0 P_____________ AL011995 32.2647 -82.1867 TD 32 993 -1 14 51
1995154N17276 1995 27 NA NA ALLISON 1995-06-06 06:00:00 ET 32.7000 -81.5000 35 994 hurdat_atl main 0 0 O_____________ hurdat_atl AL011995 32.7000 -81.5000 EX 35 994 -4 15 53
1995154N17276 1995 27 NA NA ALLISON 1995-06-06 09:00:00 ET 33.1492 -80.7940 main 0 0 P_____________ AL011995 33.1492 -80.7940 EX 35 994 -4 15 54
1995154N17276 1995 27 NA NA ALLISON 1995-06-06 12:00:00 ET 33.6000 -80.0000 35 995 hurdat_atl main 0 0 O_____________ hurdat_atl AL011995 33.6000 -80.0000 EX 35 995 -4 17 58
1995154N17276 1995 27 NA NA ALLISON 1995-06-06 15:00:00 ET 34.0344 -79.1010 main 0 0 P_____________ AL011995 34.0344 -79.1010 EX 37 995 -4 18 60
1995154N17276 1995 27 NA NA ALLISON 1995-06-06 18:00:00 ET 34.5000 -78.1000 40 995 hurdat_atl main 0 0 O_____________ hurdat_atl AL011995 34.5000 -78.1000 EX 40 995 -4 20 60
1995154N17276 1995 27 NA NA ALLISON 1995-06-06 21:00:00 ET 35.0044 -77.0280 main 0 0 P_____________ AL011995 35.0044 -77.0280 EX 40 993 -4 21 59
1995154N17276 1995 27 NA NA ALLISON 1995-06-07 00:00:00 ET 35.6000 -75.9000 40 992 hurdat_atl main 0 0 O_____________ hurdat_atl AL011995 35.6000 -75.9000 EX 40 992 -4 23 54
1995154N17276 1995 27 NA NA ALLISON 1995-06-07 03:00:00 ET 36.3260 -74.7789 main 79 79 P_____________ AL011995 36.3260 -74.7789 EX 42 991 -4 24 51
1995154N17276 1995 27 NA NA ALLISON 1995-06-07 06:00:00 ET 37.1000 -73.6000 45 990 hurdat_atl main 184 184 O_____________ hurdat_atl AL011995 37.1000 -73.6000 EX 45 990 -4 25 53
1995154N17276 1995 27 NA NA ALLISON 1995-06-07 09:00:00 ET 37.8160 -72.2625 main 250 250 P_____________ AL011995 37.8160 -72.2625 EX 45 989 -4 25 56
1995154N17276 1995 27 NA NA ALLISON 1995-06-07 12:00:00 ET 38.5000 -71.0000 45 988 hurdat_atl main 290 270 O_____________ hurdat_atl AL011995 38.5000 -71.0000 EX 45 988 -4 22 53
1995154N17276 1995 27 NA NA ALLISON 1995-06-07 15:00:00 ET 39.1631 -70.0149 main 262 221 P_____________ AL011995 39.1631 -70.0149 EX 45 986 -4 19 47
1995154N17276 1995 27 NA NA ALLISON 1995-06-07 18:00:00 ET 39.8000 -69.2000 45 984 hurdat_atl main 221 191 O_____________ hurdat_atl AL011995 39.8000 -69.2000 EX 45 984 -4 17 45
1995154N17276 1995 27 NA NA ALLISON 1995-06-07 21:00:00 ET 40.3912 -68.4393 main 196 188 P_____________ AL011995 40.3912 -68.4393 EX 47 983 -4 17 44
1995154N17276 1995 27 NA NA ALLISON 1995-06-08 00:00:00 ET 41.0000 -67.7000 50 982 hurdat_atl main 206 206 O_____________ hurdat_atl AL011995 41.0000 -67.7000 EX 50 982 -4 17 42
1995154N17276 1995 27 NA NA ALLISON 1995-06-08 03:00:00 ET 41.6836 -66.9076 main 222 126 P_____________ AL011995 41.6836 -66.9076 EX 50 983 -4 19 42
1995154N17276 1995 27 NA NA ALLISON 1995-06-08 06:00:00 ET 42.4000 -66.0000 50 984 hurdat_atl main 124 50 O_____________ hurdat_atl AL011995 42.4000 -66.0000 EX 50 984 -4 20 46
1995154N17276 1995 27 NA NA ALLISON 1995-06-08 09:00:00 ET 43.0997 -64.9083 main 54 52 P_____________ AL011995 43.0997 -64.9083 EX 50 986 -4 22 50
1995154N17276 1995 27 NA NA ALLISON 1995-06-08 12:00:00 ET 43.8000 -63.7000 50 989 hurdat_atl main 67 32 O_____________ hurdat_atl AL011995 43.8000 -63.7000 EX 50 989 -4 22 51
1995154N17276 1995 27 NA NA ALLISON 1995-06-08 15:00:00 ET 44.5061 -62.4775 main 32 7 P_____________ AL011995 44.5061 -62.4775 EX 47 991 -4 23 52
1995154N17276 1995 27 NA NA ALLISON 1995-06-08 18:00:00 ET 45.2000 -61.2000 45 993 hurdat_atl main 0 0 O_____________ hurdat_atl AL011995 45.2000 -61.2000 EX 45 993 -4 23 54
1995154N17276 1995 27 NA NA ALLISON 1995-06-08 21:00:00 ET 45.8342 -59.8530 main 15 15 P_____________ AL011995 45.8342 -59.8530 EX 42 994 -4 23 55
1995154N17276 1995 27 NA NA ALLISON 1995-06-09 00:00:00 ET 46.5000 -58.5000 40 995 hurdat_atl main 104 44 O_____________ hurdat_atl AL011995 46.5000 -58.5000 EX 40 995 -4 23 52
1995154N17276 1995 27 NA NA ALLISON 1995-06-09 03:00:00 ET 47.2526 -57.2095 main 31 0 P_____________ AL011995 47.2526 -57.2095 EX 40 995 -4 24 48
1995154N17276 1995 27 NA NA ALLISON 1995-06-09 06:00:00 ET 48.1000 -55.9000 40 996 hurdat_atl main 0 0 O_____________ hurdat_atl AL011995 48.1000 -55.9000 EX 40 996 -4 26 49
1995154N17276 1995 27 NA NA ALLISON 1995-06-09 09:00:00 ET 48.9482 -54.3320 main 0 0 P_____________ AL011995 48.9482 -54.3320 EX 40 996 -4 27 45
1995154N17276 1995 27 NA NA ALLISON 1995-06-09 12:00:00 ET 50.0000 -53.0000 40 997 hurdat_atl main 85 85 O_____________ hurdat_atl AL011995 50.0000 -53.0000 EX 40 997 -4 27 29
1995154N17276 1995 27 NA NA ALLISON 1995-06-09 15:00:00 ET 51.3400 -52.2791 main 221 220 P_____________ AL011995 51.3400 -52.2791 EX 40 998 -4 31 12
1995154N17276 1995 27 NA NA ALLISON 1995-06-09 18:00:00 ET 53.0000 -52.0000 40 1000 hurdat_atl main 250 250 O_____________ hurdat_atl AL011995 53.0000 -52.0000 EX 40 1000 -4 37 3
1995154N17276 1995 27 NA NA ALLISON 1995-06-09 21:00:00 ET 54.9997 -51.9160 main 306 306 P_____________ AL011995 54.9997 -51.9160 EX 40 998 -4 40 0
1995154N17276 1995 27 NA NA ALLISON 1995-06-10 00:00:00 ET 57.0000 -52.0000 40 997 hurdat_atl main 423 326 O_____________ hurdat_atl AL011995 57.0000 -52.0000 EX 40 997 -4 36 360
1995154N17276 1995 27 NA NA ALLISON 1995-06-10 03:00:00 ET 58.6492 -51.9323 main 326 224 P_____________ AL011995 58.6492 -51.9323 EX 40 993 -4 30 0
1995154N17276 1995 27 NA NA ALLISON 1995-06-10 06:00:00 ET 60.0000 -52.0000 40 990 hurdat_atl main 216 167 O_____________ hurdat_atl AL011995 60.0000 -52.0000 EX 40 990 -4 24 355
1995154N17276 1995 27 NA NA ALLISON 1995-06-10 09:00:00 ET 61.0742 -52.3542 main 170 149 P_____________ AL011995 61.0742 -52.3542 EX 40 991 -4 20 346
1995154N17276 1995 27 NA NA ALLISON 1995-06-10 12:00:00 ET 62.0000 -53.0000 40 992 hurdat_atl main 149 135 O_____________ hurdat_atl AL011995 62.0000 -53.0000 EX 40 992 -4 21 339
1995154N17276 1995 27 NA NA ALLISON 1995-06-10 15:00:00 ET 63.0768 -53.9862 main 135 135 P_____________ AL011995 63.0768 -53.9862 EX 37 992 -4 22 336
1995154N17276 1995 27 NA NA ALLISON 1995-06-10 18:00:00 ET 64.0000 -55.0000 35 992 hurdat_atl main 146 146 O_____________ hurdat_atl AL011995 64.0000 -55.0000 EX 35 992 -4 17 335
1995154N17276 1995 27 NA NA ALLISON 1995-06-10 21:00:00 ET 64.5986 -55.6349 main 159 150 P_____________ AL011995 64.5986 -55.6349 EX 35 992 -4 11 337
1995154N17276 1995 27 NA NA ALLISON 1995-06-11 00:00:00 ET 65.0000 -56.0000 35 993 hurdat_atl main 150 O_____________ hurdat_atl AL011995 65.0000 -56.0000 EX 35 993 -4 9 339

IBTrACS Databaseについて

本データベースは、米国NOAAが公開する1842年以降の世界の熱帯低気圧のベストトラックデータアーカイブInternational Best Track Archive for Climate Stewardship (IBTrACS)を、ウェブで閲覧しやすい形式に変換したものです。

最終更新日:2021-12-06